Time,TemperatureF,DewpointF,PressureIn,WindDirection,WindDirectionDegrees,WindSpeedMPH,WindSpeedGustMPH,Humidity,HourlyPrecipIn,Conditions,Clouds,dailyrainin,SoftwareType,DateUTC
2016-09-26 00:05:00,52.0,36.0,-100.00,West,270,6.0,7.0,55,-99.99,,,-99.99,,2016-09-26 06:05:00,
2016-09-26 00:14:00,52.0,36.0,-100.00,West,260,7.0,8.0,55,-99.99,,,-99.99,,2016-09-26 06:14:00,
2016-09-26 00:24:00,52.0,36.0,-100.00,West,260,7.0,8.0,55,-99.99,,,-99.99,,2016-09-26 06:24:00,
2016-09-26 00:46:00,52.0,37.0,-100.00,WSW,250,7.0,8.0,55,-99.99,,,-99.99,,2016-09-26 06:46:00,
2016-09-26 00:54:00,53.0,37.0,-100.00,WSW,250,7.0,9.0,54,-99.99,,,-99.99,,2016-09-26 06:54:00,
2016-09-26 01:05:00,53.0,37.0,-100.00,WSW,250,7.0,9.0,54,-99.99,,,-99.99,,2016-09-26 07:05:00,
2016-09-26 01:15:00,53.0,36.0,-100.00,WSW,250,8.0,9.0,53,-99.99,,,-99.99,,2016-09-26 07:15:00,
2016-09-26 01:27:00,53.0,37.0,-100.00,West,260,8.0,10.0,54,-99.99,,,-99.99,,2016-09-26 07:27:00,
2016-09-26 01:36:00,53.0,37.0,-100.00,West,260,8.0,10.0,54,-99.99,,,-99.99,,2016-09-26 07:36:00,
2016-09-26 01:44:00,53.0,37.0,-100.00,West,260,8.0,10.0,54,-99.99,,,-99.99,,2016-09-26 07:44:00,
2016-09-26 01:55:00,53.0,36.0,-100.00,West,275,9.0,11.0,53,-99.99,,,-99.99,,2016-09-26 07:55:00,
2016-09-26 02:04:00,53.0,36.0,-100.00,West,275,9.0,11.0,53,-99.99,,,-99.99,,2016-09-26 08:04:00,
2016-09-26 02:13:00,54.0,36.0,-100.00,West,280,9.0,16.0,51,-99.99,,,-99.99,,2016-09-26 08:13:00,
2016-09-26 02:24:00,54.0,36.0,-100.00,West,280,9.0,16.0,51,-99.99,,,-99.99,,2016-09-26 08:24:00,
2016-09-26 02:34:00,54.0,36.0,-100.00,WNW,285,8.0,14.0,51,-99.99,,,-99.99,,2016-09-26 08:34:00,
2016-09-26 02:53:00,54.0,36.0,-100.00,West,280,9.0,-999.0,51,-99.99,,,-99.99,,2016-09-26 08:53:00,
2016-09-26 03:03:00,54.0,36.0,-100.00,West,280,9.0,12.0,51,-99.99,,,-99.99,,2016-09-26 09:03:00,
2016-09-26 03:13:00,54.0,36.0,-100.00,West,280,9.0,12.0,51,-99.99,,,-99.99,,2016-09-26 09:13:00,
2016-09-26 03:23:00,54.0,36.0,-100.00,West,280,9.0,12.0,51,-99.99,,,-99.99,,2016-09-26 09:23:00,
2016-09-26 03:34:00,54.0,36.0,-100.00,WNW,285,9.0,11.0,51,-99.99,,,-99.99,,2016-09-26 09:34:00,
2016-09-26 03:45:00,54.0,36.0,-100.00,WNW,285,9.0,11.0,51,-99.99,,,-99.99,,2016-09-26 09:45:00,
2016-09-26 04:06:00,53.0,36.0,-100.00,WNW,285,8.0,9.0,51,-99.99,,,-99.99,,2016-09-26 10:06:00,
2016-09-26 04:14:00,51.0,36.0,-100.00,WNW,285,6.0,7.0,55,-99.99,,,-99.99,,2016-09-26 10:14:00,
2016-09-26 04:24:00,51.0,36.0,-100.00,WNW,285,6.0,7.0,55,-99.99,,,-99.99,,2016-09-26 10:24:00,
2016-09-26 04:37:00,51.0,35.0,-100.00,West,280,5.0,6.0,54,-99.99,,,-99.99,,2016-09-26 10:37:00,
2016-09-26 04:57:00,52.0,36.0,-100.00,WNW,290,6.0,7.0,54,-99.99,,,-99.99,,2016-09-26 10:57:00,
2016-09-26 05:06:00,52.0,36.0,-100.00,WNW,290,6.0,7.0,54,-99.99,,,-99.99,,2016-09-26 11:06:00,
2016-09-26 05:15:00,52.0,36.0,-100.00,West,280,8.0,8.0,54,-99.99,,,-99.99,,2016-09-26 11:15:00,
2016-09-26 06:06:00,52.0,36.0,-100.00,West,280,7.0,9.0,54,-99.99,,,-99.99,,2016-09-26 12:06:00,
2016-09-26 06:15:00,50.0,36.0,-100.00,West,270,4.0,6.0,57,-99.99,,,-99.99,,2016-09-26 12:15:00,
2016-09-26 06:25:00,50.0,36.0,-100.00,West,270,4.0,6.0,57,-99.99,,,-99.99,,2016-09-26 12:25:00,
2016-09-26 06:35:00,50.0,36.0,-100.00,WSW,240,2.0,4.0,57,-99.99,,,-99.99,,2016-09-26 12:35:00,
2016-09-26 06:45:00,50.0,36.0,-100.00,WSW,240,2.0,4.0,57,-99.99,,,-99.99,,2016-09-26 12:45:00,
2016-09-26 07:05:00,51.0,36.0,-100.00,WSW,245,5.0,6.0,57,-99.99,,,-99.99,,2016-09-26 13:05:00,
2016-09-26 07:15:00,51.0,36.0,-100.00,West,265,4.0,7.0,57,-99.99,,,-99.99,,2016-09-26 13:15:00,
2016-09-26 07:20:00,50.0,36.0,-100.00,WSW,250,5.0,7.0,58,-99.99,,,-99.99,,2016-09-26 13:20:00,
2016-09-26 07:25:00,51.0,36.0,-100.00,West,265,4.0,7.0,57,-99.99,,,-99.99,,2016-09-26 13:25:00,
2016-09-26 07:35:00,50.0,36.0,-100.00,West,260,6.0,6.0,58,-99.99,,,-99.99,,2016-09-26 13:35:00,
2016-09-26 07:45:00,50.0,36.0,-100.00,West,260,6.0,6.0,58,-99.99,,,-99.99,,2016-09-26 13:45:00,
2016-09-26 07:54:00,50.0,36.0,-100.00,WSW,250,5.0,-999.0,58,-99.99,,,-99.99,,2016-09-26 13:54:00,
2016-09-26 08:04:00,50.0,36.0,-100.00,WSW,250,5.0,7.0,58,-99.99,,,-99.99,,2016-09-26 14:04:00,
2016-09-26 08:13:00,50.0,36.0,-100.00,WSW,250,5.0,7.0,58,-99.99,,,-99.99,,2016-09-26 14:13:00,
2016-09-26 08:33:00,51.0,37.0,-100.00,SW,220,4.0,6.0,57,-99.99,,,-99.99,,2016-09-26 14:33:00,
2016-09-26 08:44:00,53.0,37.0,-100.00,SW,225,4.0,5.0,55,-99.99,,,-99.99,,2016-09-26 14:44:00,
2016-09-26 08:53:00,54.0,37.0,-100.00,SW,230,4.0,6.0,53,-99.99,,,-99.99,,2016-09-26 14:53:00,
2016-09-26 09:03:00,54.0,37.0,-100.00,SW,230,4.0,6.0,53,-99.99,,,-99.99,,2016-09-26 15:03:00,
2016-09-26 09:13:00,56.0,38.0,-100.00,WSW,250,5.0,7.0,50,-99.99,,,-99.99,,2016-09-26 15:13:00,
2016-09-26 09:24:00,56.0,38.0,-100.00,WSW,250,5.0,7.0,50,-99.99,,,-99.99,,2016-09-26 15:24:00,
2016-09-26 09:54:00,57.0,38.0,-100.00,West,260,6.0,9.0,48,-99.99,,,-99.99,,2016-09-26 15:54:00,
2016-09-26 10:06:00,57.0,38.0,-100.00,West,260,6.0,9.0,48,-99.99,,,-99.99,,2016-09-26 16:06:00,
2016-09-26 10:27:00,60.0,39.0,-100.00,WNW,285,5.0,-999.0,45,-99.99,,,-99.99,,2016-09-26 16:27:00,
2016-09-26 11:18:00,63.0,39.0,-100.00,WSW,255,9.0,-999.0,41,-99.99,,,-99.99,,2016-09-26 17:18:00,
2016-09-26 11:20:00,63.0,39.0,-100.00,West,265,9.0,12.0,40,-99.99,,,-99.99,,2016-09-26 17:20:00,
2016-09-26 11:45:00,63.0,38.0,-100.00,West,280,11.0,13.0,40,-99.99,,,-99.99,,2016-09-26 17:45:00,
2016-09-26 12:05:00,63.0,39.0,-100.00,West,265,9.0,12.0,40,-99.99,,,-99.99,,2016-09-26 18:05:00,
2016-09-26 12:15:00,63.0,39.0,-100.00,West,265,9.0,12.0,40,-99.99,,,-99.99,,2016-09-26 18:15:00,
2016-09-26 12:46:00,64.0,38.0,-100.00,WSW,250,8.0,13.0,38,-99.99,,,-99.99,,2016-09-26 18:46:00,
2016-09-26 13:06:00,65.0,39.0,-100.00,West,270,7.0,11.0,38,-99.99,,,-99.99,,2016-09-26 19:06:00,
2016-09-26 13:15:00,66.0,39.0,-100.00,West,260,8.0,12.0,36,-99.99,,,-99.99,,2016-09-26 19:15:00,
2016-09-26 13:24:00,66.0,39.0,-100.00,West,260,8.0,12.0,36,-99.99,,,-99.99,,2016-09-26 19:24:00,
2016-09-26 13:38:00,67.0,39.0,-100.00,West,275,8.0,13.0,36,-99.99,,,-99.99,,2016-09-26 19:38:00,
2016-09-26 13:45:00,67.0,39.0,-100.00,West,275,8.0,13.0,36,-99.99,,,-99.99,,2016-09-26 19:45:00,
2016-09-26 14:04:00,68.0,39.0,-100.00,WSW,255,10.0,17.0,34,-99.99,,,-99.99,,2016-09-26 20:04:00,
2016-09-26 14:13:00,69.0,39.0,-100.00,WSW,250,12.0,16.0,33,-99.99,,,-99.99,,2016-09-26 20:13:00,
2016-09-26 14:24:00,69.0,39.0,-100.00,WSW,250,12.0,16.0,33,-99.99,,,-99.99,,2016-09-26 20:24:00,
2016-09-26 14:34:00,70.0,39.0,-100.00,West,265,8.0,18.0,33,-99.99,,,-99.99,,2016-09-26 20:34:00,
2016-09-26 14:46:00,70.0,38.0,-100.00,West,280,12.0,18.0,31,-99.99,,,-99.99,,2016-09-26 20:46:00,
2016-09-26 14:54:00,70.0,38.0,-100.00,West,280,12.0,18.0,31,-99.99,,,-99.99,,2016-09-26 20:54:00,
2016-09-26 15:03:00,70.0,38.0,-100.00,West,280,12.0,18.0,31,-99.99,,,-99.99,,2016-09-26 21:03:00,
2016-09-26 15:13:00,71.0,38.0,-100.00,West,260,11.0,13.0,30,-99.99,,,-99.99,,2016-09-26 21:13:00,
2016-09-26 15:23:00,71.0,38.0,-100.00,West,260,11.0,13.0,30,-99.99,,,-99.99,,2016-09-26 21:23:00,
2016-09-26 16:04:00,72.0,39.0,-100.00,SW,220,6.0,10.0,30,-99.99,,,-99.99,,2016-09-26 22:04:00,
2016-09-26 16:14:00,74.0,40.0,-100.00,WNW,290,6.0,12.0,29,-99.99,,,-99.99,,2016-09-26 22:14:00,
2016-09-26 16:26:00,73.0,39.0,-100.00,West,275,8.0,11.0,29,-99.99,,,-99.99,,2016-09-26 22:26:00,